Ride Results

Bumbaldry (16-03-2019)
Ride distance: 80.0 km

Outcomes - Bumbaldry (16-03-2019)
Division No. of Entries Retired / DNE Completed Withdrawn Ineligible V/O Percentage Completed
HW 6 - 6 - - - 100.00%
MW 12 - 11 1 - - 91.67%
LW 14 - 12 - - 2 85.71%
JN 5 - 3 - - 2 60.00%
Totals 37 - 32 1 - 4 86.49%
Results - Bumbaldry (16-03-2019)
No. Rider Horse Place Time Leg Speeds Total
Km/Hr
H/R bpm
Heavyweight
175 John Robertson Cedar Ridge Hy Regard 1 (BC) 5:36:51 15.5, 12.8 14.25 37, 39, 42 (Avg:40)
190 Andrew Jonkers Girilambone Comet 2 5:50:43 15.2, 12.0 13.69 27, 34, 44 (Avg:39)
184 Iain Paterson Oso Leonardo 3 6:28:28 12.6, 12.0 12.36 49, 51, 56 (Avg:53)
221 Kirsty Carter Henley Farm Farhan 4 7:27:35 12.0, 9.3 10.72 40, 40, 43 (Avg:41)
222 Ian Dreghorn Ausden Nile Prins 5 8:26:11 12.1, 7.3 9.48 32, 49, 42 (Avg:45)
219 Sarah Pollard-Williams Kintamani Silver Fox 6 8:52:17 9.8, 8.1 9.02 33, 40, 44 (Avg:42)
Middleweight
180 Tahlia Franke Oso Evita 1 (BC) 5:15:16 15.3, 15.0 15.23 37, 48, 51 (Avg:49)
203 Ian Curtis Blake's Heaven Summer Wind 2 5:45:37 13.8, 13.9 13.89 29, 40, 52 (Avg:46)
154 Marisa Levitt Scarlet Oaks Faiza 3 6:11:32 13.4, 12.3 12.92 52, 41, 48 (Avg:44)
160 Tom Pankhurst Rivernook Sadiqa 4 6:28:43 13.4, 11.2 12.35 47, 42, 50 (Avg:46)
201 Kristie Wright Lydia Te 5 6:37:44 12.8, 11.2 12.07 34, 47, 48 (Avg:47)
200 Rodney Curry Mountain Breeze Mingha 6 6:37:48 12.8, 11.1 12.07 31, 36, 35 (Avg:35)
224 Olivia Antoine Castlebar Gatsby 7 6:37:54 12.8, 11.2 12.06 36, 44, 50 (Avg:47)
157 Brett Willis Tamboolou Beau Jangles 8 6:42:38 12.1, 11.6 11.92 36, 44, 59 (Avg:51)
247 Kayte Barnard FC Bejing 9 7:26:39 12.0, 9.4 10.75 35, 42, 40 (Avg:41)
165 Lauren Roper Shellal Blue 10 8:29:24 9.8, 8.9 9.42 31, 43, 48 (Avg:45)
199 Jenny Berg Rkayn Sublime 11 8:29:29 9.8, 8.9 9.42 37, 48, 45 (Avg:46)
179 Tayla Hadzi Oso Florin W/D after vetting L1 0:00:00 - - 33, 43 (Avg:43)
Lightweight
245 Gertraud Norton Scarlet Oaks Amica 1 (BC) 5:09:11 16.7, 14.1 15.52 60, 45, 44 (Avg:44)
205 Fia Hasko-Stewart Blake's Heaven Adventuress 2 5:29:56 14.0, 15.2 14.55 37, 40, 54 (Avg:47)
242 Roz Edmunds Everon Park Apollo 3 5:37:01 15.5, 12.8 14.24 40, 40, 56 (Avg:48)
191 Julie Hooper Delilah 4 5:50:28 13.5, 13.8 13.70 30, 48, 47 (Avg:47)
161 Sue Todd Shakari Bear 5 5:50:50 15.2, 12.0 13.68 33, 44, 45 (Avg:44)
181 Emma Dimech Oso Diamond Dazzler 6 5:59:10 13.5, 13.0 13.36 38, 42, 46 (Avg:44)
153 Victoria Edmonds Sylan El Aamira 7 6:11:35 13.4, 12.3 12.92 34, 50, 59 (Avg:54)
218 Courtney Chapman Castlebar Icon 8 6:55:34 12.5, 10.4 11.55 30, 40, 40 (Avg:40)
164 Patricia Melchior Shellal Kiwi 9 8:29:36 9.8, 8.9 9.42 41, 52, 50 (Avg:51)
166 Allix Jones Shellal Wookee 10 8:29:44 9.8, 8.8 9.42 38, 38, 48 (Avg:43)
210 Matthew Dunne Nugget 11 8:33:59 10.6, 8.0 9.34 35, 45, 52 (Avg:48)
211 Lukas Dunne Holly 12 8:34:10 10.6, 8.0 9.34 32, 40, 57 (Avg:48)
183 Jana Kupper Al-Marah Land Speed Lame L2 0:00:00 12.6, 12.0 - 45, 41, 46 (Avg:43)
248 Mary Hollingsworth Sandine Bugatti Metabolics L1 0:00:00 12.0 - 42, 60 (Avg:60)
Junior
182 Poppy Kettlewell Oso Nicholas 1 5:15:13 15.3, 15.0 15.23 31, 48, 49 (Avg:48)
185 Emma Cole Earlston Spa 2 (BC) 5:28:33 13.5, 16.3 14.61 29, 37, 41 (Avg:39)
244 Tahnaya Mercieca Askari's Harmony 3 6:55:28 12.5, 10.4 11.55 38, 43, 51 (Avg:47)
156 Julia Hill Belle Lame L1 0:00:00 12.1 - 30, 36 (Avg:36)
172 Levi Robinson Karumba Beamish Metabolics L1 (Rep) 0:00:00 15.5 - 39, 45, 45 (Avg:45)